Time;durP1;ratioP1;P1;durP2;ratioP2;P2;SDS_P1;SDS_P2;PMS_P1;PMS_P2;Temp;Humidity;BMP_temperature;BMP_pressure;BME280_temperature;BME280_humidity;BME280_pressure;Samples;Min_cycle;Max_cycle;Signal;HPM_P1;HPM_P2
2023/11/19 00:00:11;;;;;;;8.80;7.70;;;8.00;99.90;;;;;;5035610;28;20214;-72
2023/11/19 00:02:38;;;;;;;8.48;7.68;;;7.90;99.90;;;;;;5044181;28;20288;-74
2023/11/19 00:05:08;;;;;;;7.43;6.72;;;7.90;99.90;;;;;;5034879;28;20229;-75
2023/11/19 00:07:35;;;;;;;12.88;8.70;;;7.90;99.90;;;;;;5042937;28;20734;-71
2023/11/19 00:10:06;;;;;;;11.52;10.25;;;7.90;99.90;;;;;;5034893;28;20303;-72
2023/11/19 00:12:33;;;;;;;10.30;8.48;;;7.90;99.90;;;;;;5048623;28;20208;-70
2023/11/19 00:15:00;;;;;;;11.75;10.13;;;8.00;99.90;;;;;;5041199;28;20223;-75
2023/11/19 00:17:28;;;;;;;11.48;9.43;;;8.00;99.90;;;;;;5044133;28;20651;-75
2023/11/19 00:19:54;;;;;;;8.13;7.32;;;8.00;99.90;;;;;;5035333;28;20211;-75
2023/11/19 00:22:22;;;;;;;19.05;11.32;;;8.00;99.90;;;;;;5036177;28;20294;-71
2023/11/19 00:24:50;;;;;;;12.32;10.95;;;8.00;99.90;;;;;;5036972;28;20596;-74
2023/11/19 00:27:18;;;;;;;12.13;10.98;;;8.10;99.90;;;;;;5047761;28;20319;-71
2023/11/19 00:29:46;;;;;;;14.80;13.20;;;8.10;99.90;;;;;;5050068;28;20195;-71
2023/11/19 00:32:13;;;;;;;17.40;14.77;;;8.10;99.90;;;;;;5046638;28;20293;-72
2023/11/19 00:34:40;;;;;;;15.32;13.02;;;8.10;99.90;;;;;;5046951;28;20270;-72
2023/11/19 00:37:07;;;;;;;15.32;13.80;;;8.10;99.90;;;;;;5051579;28;20614;-73
2023/11/19 00:40:12;;;;;;;15.32;13.02;;;8.10;99.90;;;;;;5052687;28;20295;-74
2023/11/19 00:42:41;;;;;;;13.90;12.40;;;8.10;99.90;;;;;;5043410;28;20574;-72
2023/11/19 00:45:09;;;;;;;21.77;14.23;;;8.20;99.90;;;;;;5041594;28;20594;-72
2023/11/19 00:47:49;;;;;;;15.35;13.48;;;8.30;99.90;;;;;;5054743;28;20525;-73
2023/11/19 00:50:16;;;;;;;18.95;16.17;;;8.30;99.90;;;;;;5040005;28;20204;-75
2023/11/19 00:52:43;;;;;;;21.15;16.27;;;8.30;99.90;;;;;;5038253;28;20292;-75
2023/11/19 00:55:11;;;;;;;23.63;19.10;;;8.30;99.90;;;;;;5048434;28;20259;-73
2023/11/19 00:57:38;;;;;;;17.73;14.80;;;8.40;99.90;;;;;;5033336;28;20211;-74
2023/11/19 01:00:17;;;;;;;16.10;14.02;;;8.50;99.90;;;;;;5034606;28;20294;-73
2023/11/19 01:02:45;;;;;;;15.73;13.55;;;8.50;99.90;;;;;;5040567;28;20256;-76
2023/11/19 01:05:14;;;;;;;15.00;13.40;;;8.60;99.90;;;;;;5041848;28;20226;-75
2023/11/19 01:07:41;;;;;;;17.13;15.10;;;8.70;99.90;;;;;;5037008;28;20479;-73
2023/11/19 01:10:08;;;;;;;16.33;14.63;;;8.80;99.90;;;;;;5042112;28;20210;-74
2023/11/19 01:12:35;;;;;;;16.50;13.93;;;8.70;99.90;;;;;;5044470;28;20216;-72
2023/11/19 01:15:02;;;;;;;21.15;17.92;;;8.70;99.90;;;;;;5034717;28;20224;-72
2023/11/19 01:17:31;;;;;;;19.17;15.50;;;8.70;99.90;;;;;;5037453;28;20642;-73
2023/11/19 01:19:58;;;;;;;15.75;14.15;;;8.70;99.90;;;;;;5041015;28;20636;-76
2023/11/19 01:22:25;;;;;;;23.00;16.70;;;8.70;99.90;;;;;;5040949;28;20204;-71
2023/11/19 01:24:54;;;;;;;18.65;16.63;;;8.70;99.90;;;;;;5037734;28;20228;-72
2023/11/19 01:27:21;;;;;;;19.88;17.50;;;8.80;99.90;;;;;;5042507;28;20228;-71
2023/11/19 01:29:48;;;;;;;23.88;17.70;;;8.80;99.90;;;;;;5044002;28;20238;-73
2023/11/19 01:32:14;;;;;;;32.17;21.95;;;8.90;99.90;;;;;;5038992;28;20234;-74
2023/11/19 01:34:43;;;;;;;21.58;17.92;;;8.90;99.90;;;;;;5050972;28;20220;-73
2023/11/19 01:37:12;;;;;;;21.92;17.42;;;8.90;99.90;;;;;;5045095;28;20215;-72
2023/11/19 01:39:39;;;;;;;22.92;17.95;;;8.90;99.90;;;;;;5044673;28;20253;-72
2023/11/19 01:42:06;;;;;;;18.55;16.55;;;8.90;99.90;;;;;;5037037;28;20557;-71
2023/11/19 01:44:33;;;;;;;21.40;17.77;;;8.90;99.90;;;;;;5044400;28;20308;-74
2023/11/19 01:47:01;;;;;;;23.15;19.05;;;9.00;99.90;;;;;;5044687;28;20200;-74
2023/11/19 01:49:28;;;;;;;18.08;16.05;;;9.10;99.90;;;;;;5049659;28;20314;-73
2023/11/19 01:51:58;;;;;;;22.20;16.48;;;9.20;99.90;;;;;;5087567;22;20204;-83
2023/11/19 01:54:25;;;;;;;26.83;19.17;;;9.20;99.90;;;;;;5042688;28;20276;-81
2023/11/19 01:56:56;;;;;;;23.15;16.33;;;9.20;99.90;;;;;;5040240;28;20645;-83
2023/11/19 01:59:26;;;;;;;22.27;16.30;;;9.20;99.90;;;;;;5046463;28;20619;-81
2023/11/19 02:01:53;;;;;;;16.15;14.15;;;9.30;99.90;;;;;;5045265;28;20291;-81
2023/11/19 02:04:21;;;;;;;19.70;15.73;;;9.40;99.90;;;;;;5039001;28;20200;-83
2023/11/19 02:06:52;;;;;;;21.58;16.95;;;9.50;99.90;;;;;;5036507;28;20216;-82
2023/11/19 02:09:21;;;;;;;23.15;18.52;;;9.60;99.90;;;;;;5038247;28;20235;-83
2023/11/19 02:11:51;;;;;;;17.70;15.90;;;9.70;99.90;;;;;;5039391;28;20202;-83
2023/11/19 02:14:18;;;;;;;34.38;21.15;;;9.70;99.90;;;;;;5035247;28;20212;-82
2023/11/19 02:16:45;;;;;;;24.25;17.67;;;9.70;99.90;;;;;;5028364;28;20219;-81
2023/11/19 02:19:11;;;;;;;27.40;19.67;;;9.80;99.90;;;;;;5042954;28;20286;-83
2023/11/19 02:21:38;;;;;;;19.55;17.50;;;9.90;99.90;;;;;;5037497;28;20204;-81
2023/11/19 02:24:11;;;;;;;22.17;18.55;;;10.00;99.90;;;;;;5037575;28;20316;-82
2023/11/19 02:26:45;;;;;;;21.48;18.20;;;10.10;99.90;;;;;;5023870;28;20759;-80
2023/11/19 02:29:13;;;;;;;22.50;17.17;;;10.20;99.90;;;;;;5031944;28;20311;-82
2023/11/19 02:31:40;;;;;;;24.45;19.60;;;10.30;99.90;;;;;;5038140;28;20455;-83
2023/11/19 02:34:07;;;;;;;23.38;19.33;;;10.40;99.90;;;;;;5031808;28;20376;-80
2023/11/19 02:36:34;;;;;;;27.77;23.27;;;10.40;99.90;;;;;;5042943;28;20212;-79
2023/11/19 02:39:01;;;;;;;23.10;19.77;;;10.50;99.90;;;;;;5030942;28;20197;-79
2023/11/19 02:41:29;;;;;;;24.38;21.25;;;10.40;99.90;;;;;;5030833;28;20200;-79
2023/11/19 02:43:55;;;;;;;35.65;24.52;;;10.50;99.90;;;;;;5036233;28;20571;-81
2023/11/19 02:46:24;;;;;;;39.10;26.67;;;10.60;99.90;;;;;;5030140;28;20253;-81
2023/11/19 02:48:51;;;;;;;30.15;22.77;;;10.60;99.90;;;;;;5050665;28;20292;-81
2023/11/19 02:51:18;;;;;;;40.08;26.65;;;10.60;99.90;;;;;;5044211;28;20212;-81
2023/11/19 02:53:48;;;;;;;35.47;25.30;;;10.60;99.90;;;;;;5043796;28;20667;-81
2023/11/19 02:56:20;;;;;;;35.47;25.73;;;10.70;99.90;;;;;;5034116;28;20208;-80
2023/11/19 02:58:48;;;;;;;40.35;28.13;;;10.70;99.90;;;;;;5043684;28;20545;-80
2023/11/19 03:01:23;;;;;;;25.63;20.85;;;10.80;99.90;;;;;;5032947;28;20211;-79
2023/11/19 03:03:54;;;;;;;37.58;26.20;;;10.90;99.90;;;;;;5041998;28;20248;-80
2023/11/19 03:06:22;;;;;;;33.88;25.20;;;10.90;99.90;;;;;;5029093;28;20209;-79
2023/11/19 03:08:49;;;;;;;38.20;26.02;;;11.00;99.90;;;;;;5043784;28;20590;-80
2023/11/19 03:11:15;;;;;;;35.75;24.90;;;11.00;99.90;;;;;;5026603;28;20294;-80
2023/11/19 03:13:42;;;;;;;31.23;24.70;;;11.00;99.90;;;;;;5043119;28;20285;-79
2023/11/19 03:16:09;;;;;;;32.50;25.63;;;11.10;99.90;;;;;;5037532;28;20202;-79
2023/11/19 03:18:36;;;;;;;35.47;26.00;;;11.10;99.90;;;;;;5037076;28;20218;-81
2023/11/19 03:21:05;;;;;;;39.70;27.15;;;11.10;99.90;;;;;;5041063;28;20577;-81
2023/11/19 03:23:31;;;;;;;35.88;27.10;;;11.20;99.90;;;;;;5043854;28;20263;-81
2023/11/19 03:25:59;;;;;;;39.60;25.50;;;11.20;99.90;;;;;;5042209;28;20267;-80
2023/11/19 03:28:25;;;;;;;33.47;25.33;;;11.30;99.90;;;;;;5033403;28;20274;-80
2023/11/19 03:30:53;;;;;;;38.30;27.02;;;11.30;99.90;;;;;;5038504;28;20203;-81
2023/11/19 03:33:19;;;;;;;44.22;28.58;;;11.20;99.90;;;;;;5033691;28;20871;-82
2023/11/19 03:35:46;;;;;;;31.52;25.45;;;11.20;99.90;;;;;;5039798;28;20230;-81
2023/11/19 03:38:15;;;;;;;35.67;26.00;;;11.20;99.90;;;;;;5037221;28;20230;-82
2023/11/19 03:40:42;;;;;;;33.38;22.10;;;11.20;99.90;;;;;;5027080;28;20210;-80
2023/11/19 03:43:09;;;;;;;35.97;25.63;;;11.20;99.90;;;;;;5031920;28;20225;-81
2023/11/19 03:45:37;;;;;;;37.50;26.95;;;11.20;99.90;;;;;;5035392;28;20210;-80
2023/11/19 03:48:04;;;;;;;35.90;24.42;;;11.30;99.90;;;;;;5033699;28;20209;-80
2023/11/19 03:50:31;;;;;;;44.15;26.35;;;11.30;99.90;;;;;;5033321;28;20221;-81
2023/11/19 03:52:57;;;;;;;37.50;25.42;;;11.30;99.90;;;;;;5028056;28;20328;-79
2023/11/19 03:55:26;;;;;;;36.10;25.83;;;11.40;99.90;;;;;;5025852;28;20200;-79
2023/11/19 03:57:52;;;;;;;42.78;26.42;;;11.40;99.90;;;;;;5039179;28;20207;-81
2023/11/19 04:00:20;;;;;;;35.20;26.13;;;11.40;99.90;;;;;;5029397;28;20208;-81
2023/11/19 04:02:47;;;;;;;35.33;25.13;;;11.40;99.90;;;;;;5031121;28;20645;-82
2023/11/19 04:05:14;;;;;;;44.15;29.63;;;11.40;99.90;;;;;;5020072;28;20570;-81
2023/11/19 04:07:41;;;;;;;40.22;25.17;;;11.40;99.90;;;;;;5031976;28;20298;-79
2023/11/19 04:10:08;;;;;;;45.38;26.48;;;11.40;99.90;;;;;;5018858;28;20751;-82
2023/11/19 04:12:37;;;;;;;34.70;24.00;;;11.40;99.90;;;;;;5033931;28;20604;-80
2023/11/19 04:15:04;;;;;;;39.65;24.45;;;11.50;99.90;;;;;;5027865;28;20443;-80
2023/11/19 04:17:31;;;;;;;36.78;25.58;;;11.60;99.90;;;;;;5028768;28;20287;-81
2023/11/19 04:19:58;;;;;;;43.22;27.33;;;11.60;99.90;;;;;;5024474;28;20578;-80
2023/11/19 04:22:26;;;;;;;40.03;25.77;;;11.60;99.90;;;;;;5037350;28;20230;-81
2023/11/19 04:24:52;;;;;;;42.30;26.10;;;11.60;99.90;;;;;;5035506;28;20567;-80
2023/11/19 04:27:19;;;;;;;38.95;25.02;;;11.60;99.90;;;;;;5034483;28;20202;-78
2023/11/19 04:29:48;;;;;;;41.85;25.92;;;11.60;99.90;;;;;;5031050;28;20299;-81
2023/11/19 04:32:15;;;;;;;51.22;27.85;;;11.60;99.90;;;;;;5037666;28;20223;-81
2023/11/19 04:34:42;;;;;;;41.15;26.95;;;11.60;99.90;;;;;;5034607;28;20220;-81
2023/11/19 04:37:09;;;;;;;38.22;24.75;;;11.60;99.90;;;;;;5040951;28;20264;-81
2023/11/19 04:39:36;;;;;;;45.08;26.88;;;11.70;99.90;;;;;;5037949;28;20683;-81
2023/11/19 04:42:05;;;;;;;41.72;25.45;;;11.70;99.90;;;;;;5030155;28;20205;-81
2023/11/19 04:44:33;;;;;;;48.13;26.00;;;11.70;99.90;;;;;;5032972;28;20230;-80
2023/11/19 04:47:01;;;;;;;42.83;27.00;;;11.70;99.90;;;;;;5037561;28;20310;-80
2023/11/19 04:49:28;;;;;;;38.33;24.10;;;11.70;99.90;;;;;;5032732;28;20703;-80
2023/11/19 04:51:55;;;;;;;45.28;24.83;;;11.80;99.90;;;;;;5035896;28;20708;-80
2023/11/19 04:54:21;;;;;;;34.72;25.73;;;11.80;99.90;;;;;;5024179;28;20562;-81
2023/11/19 04:56:48;;;;;;;34.58;23.73;;;11.80;99.90;;;;;;5023775;28;20215;-80
2023/11/19 04:59:15;;;;;;;38.40;23.52;;;11.80;99.90;;;;;;5024711;28;20203;-80
2023/11/19 05:01:42;;;;;;;36.13;25.27;;;11.80;99.90;;;;;;5031765;28;20286;-81
2023/11/19 05:04:10;;;;;;;40.78;25.10;;;11.80;99.90;;;;;;5032759;28;20230;-81
2023/11/19 05:06:37;;;;;;;39.78;25.25;;;11.80;99.90;;;;;;5030244;28;20215;-80
2023/11/19 05:09:07;;;;;;;41.92;27.15;;;11.80;99.90;;;;;;5025221;28;20227;-81
2023/11/19 05:11:34;;;;;;;51.97;25.73;;;11.80;99.90;;;;;;5034148;28;20204;-80
2023/11/19 05:14:00;;;;;;;43.70;23.35;;;11.80;99.90;;;;;;5037730;28;20220;-81
2023/11/19 05:16:27;;;;;;;36.28;23.05;;;11.80;99.90;;;;;;5033761;28;20211;-80
2023/11/19 05:18:54;;;;;;;45.08;25.10;;;11.90;99.90;;;;;;5028749;28;20204;-81
2023/11/19 05:21:23;;;;;;;35.95;22.20;;;11.90;99.90;;;;;;5037690;28;20200;-81
2023/11/19 05:23:50;;;;;;;46.85;22.73;;;11.90;99.90;;;;;;5030480;28;20318;-80
2023/11/19 05:26:21;;;;;;;30.05;22.23;;;11.90;99.90;;;;;;5031214;28;20209;-80
2023/11/19 05:28:48;;;;;;;35.45;20.13;;;11.90;99.90;;;;;;5035111;28;20351;-80
2023/11/19 05:31:15;;;;;;;35.58;19.08;;;12.00;99.90;;;;;;5029400;28;20197;-81
2023/11/19 05:33:41;;;;;;;33.22;18.95;;;12.00;99.90;;;;;;5030392;28;20229;-81
2023/11/19 05:36:09;;;;;;;29.92;17.50;;;12.00;99.90;;;;;;5030507;28;20208;-81
2023/11/19 05:38:37;;;;;;;29.00;16.70;;;11.90;99.90;;;;;;5028468;28;20213;-82
2023/11/19 05:41:04;;;;;;;21.40;15.18;;;11.90;99.90;;;;;;5031807;28;20685;-80
2023/11/19 05:43:31;;;;;;;30.02;14.98;;;12.00;99.90;;;;;;5033447;28;20220;-81
2023/11/19 05:45:58;;;;;;;30.08;14.80;;;12.10;99.90;;;;;;5028253;28;20632;-81
2023/11/19 05:48:27;;;;;;;24.13;12.98;;;12.10;99.90;;;;;;5033587;28;20205;-81
2023/11/19 05:50:54;;;;;;;29.58;15.13;;;12.10;99.90;;;;;;5039801;28;20293;-80
2023/11/19 05:53:21;;;;;;;36.08;17.52;;;12.10;99.90;;;;;;5036838;28;20304;-81
2023/11/19 05:55:55;;;;;;;23.48;12.30;;;12.10;99.90;;;;;;5035741;28;20451;-80
2023/11/19 05:58:24;;;;;;;19.27;12.40;;;12.10;99.90;;;;;;5022844;28;20203;-81
2023/11/19 06:00:51;;;;;;;31.05;13.02;;;12.20;99.90;;;;;;5036177;28;20288;-80
2023/11/19 06:03:18;;;;;;;25.65;12.45;;;12.10;99.90;;;;;;5037711;28;20286;-81
2023/11/19 06:05:45;;;;;;;22.83;13.38;;;12.20;99.90;;;;;;5031270;28;20218;-79
2023/11/19 06:08:12;;;;;;;24.48;11.02;;;12.10;99.90;;;;;;5035699;28;20203;-81
2023/11/19 06:10:39;;;;;;;25.83;11.70;;;12.10;99.90;;;;;;5034678;28;20222;-81
2023/11/19 06:13:10;;;;;;;24.85;9.75;;;12.10;99.90;;;;;;5026994;28;20551;-80
2023/11/19 06:15:37;;;;;;;38.72;12.50;;;12.10;99.90;;;;;;5032418;28;20236;-80
2023/11/19 06:18:04;;;;;;;29.00;11.98;;;12.20;99.90;;;;;;5023918;28;20224;-80
2023/11/19 06:20:31;;;;;;;36.75;11.93;;;12.20;99.90;;;;;;5027165;28;20231;-80
2023/11/19 06:22:58;;;;;;;29.38;9.98;;;12.20;99.90;;;;;;5030834;28;20217;-80
2023/11/19 06:25:25;;;;;;;22.25;7.88;;;12.10;99.90;;;;;;5034350;28;20215;-80
2023/11/19 06:27:52;;;;;;;25.90;8.30;;;12.10;99.90;;;;;;5025659;28;20197;-81
2023/11/19 06:30:20;;;;;;;33.17;9.95;;;12.10;99.90;;;;;;5028575;28;20221;-80
2023/11/19 06:32:47;;;;;;;25.02;9.50;;;12.20;99.90;;;;;;5033232;28;20224;-80
2023/11/19 06:35:14;;;;;;;19.95;8.48;;;12.20;99.90;;;;;;5035532;28;20203;-81
2023/11/19 06:37:42;;;;;;;30.85;8.23;;;12.10;99.90;;;;;;5030158;28;20201;-81
2023/11/19 06:40:10;;;;;;;28.77;8.52;;;12.20;99.90;;;;;;5028023;28;20295;-81
2023/11/19 06:42:36;;;;;;;26.65;9.52;;;12.20;99.90;;;;;;5038277;28;20248;-81
2023/11/19 06:45:04;;;;;;;36.72;10.60;;;12.30;99.90;;;;;;5034506;28;20210;-82
2023/11/19 06:47:32;;;;;;;28.23;7.43;;;12.30;99.90;;;;;;5028512;28;20205;-81
2023/11/19 06:49:59;;;;;;;26.13;8.10;;;12.30;99.90;;;;;;5029229;28;20221;-81
2023/11/19 06:52:26;;;;;;;32.88;7.88;;;12.20;99.90;;;;;;5038188;28;20243;-81
2023/11/19 06:54:53;;;;;;;24.58;7.93;;;12.20;99.90;;;;;;5034536;28;20203;-80
2023/11/19 06:57:20;;;;;;;32.08;8.73;;;12.20;99.90;;;;;;5036426;28;20332;-80
2023/11/19 06:59:47;;;;;;;23.40;6.72;;;12.20;99.90;;;;;;5032284;28;20217;-80
2023/11/19 07:02:14;;;;;;;29.83;8.35;;;12.20;99.90;;;;;;5029780;28;20227;-82
2023/11/19 07:04:42;;;;;;;25.55;7.55;;;12.10;99.90;;;;;;5036173;28;20204;-79
2023/11/19 07:07:09;;;;;;;35.92;8.23;;;12.20;99.90;;;;;;5036208;28;20311;-80
2023/11/19 07:09:37;;;;;;;25.08;8.13;;;12.20;99.90;;;;;;5027850;28;20225;-80
2023/11/19 07:12:04;;;;;;;30.30;8.82;;;12.20;99.90;;;;;;5039912;28;20708;-81
2023/11/19 07:14:31;;;;;;;29.95;8.98;;;12.10;99.90;;;;;;5029509;28;20284;-79
2023/11/19 07:16:58;;;;;;;29.25;7.07;;;12.10;99.90;;;;;;5039654;28;20291;-81
2023/11/19 07:19:25;;;;;;;32.92;8.43;;;12.20;99.90;;;;;;5031812;28;20261;-81
2023/11/19 07:21:54;;;;;;;23.42;7.07;;;12.20;99.90;;;;;;5038160;28;20213;-80
2023/11/19 07:24:21;;;;;;;32.63;10.25;;;12.20;99.90;;;;;;5035770;28;20292;-81
2023/11/19 07:26:48;;;;;;;37.85;8.70;;;12.20;99.90;;;;;;5040256;28;20211;-80
2023/11/19 07:29:16;;;;;;;36.97;8.90;;;12.20;99.90;;;;;;5029779;28;20342;-80
2023/11/19 07:31:44;;;;;;;30.48;7.95;;;12.20;99.90;;;;;;5024583;28;20205;-79
2023/11/19 07:34:11;;;;;;;37.55;8.35;;;12.20;99.90;;;;;;5031053;28;20247;-79
2023/11/19 07:36:38;;;;;;;22.02;6.93;;;12.20;99.90;;;;;;5031202;28;20614;-81
2023/11/19 07:39:08;;;;;;;36.65;8.05;;;12.10;99.90;;;;;;5028228;28;20210;-80
2023/11/19 07:41:35;;;;;;;37.60;9.27;;;12.10;99.90;;;;;;5032645;28;20287;-81
2023/11/19 07:44:02;;;;;;;21.00;6.10;;;12.20;99.90;;;;;;5031386;28;20217;-81
2023/11/19 07:46:29;;;;;;;22.42;7.10;;;12.10;99.90;;;;;;5024102;28;20196;-81
2023/11/19 07:48:55;;;;;;;28.55;6.90;;;12.10;99.90;;;;;;5036912;28;20207;-82
2023/11/19 07:51:22;;;;;;;22.05;7.95;;;12.20;99.90;;;;;;5032215;28;20225;-81
2023/11/19 07:53:51;;;;;;;27.02;7.78;;;12.10;99.90;;;;;;5085986;22;20228;-85
2023/11/19 07:56:49;;;;;;;35.55;8.93;;;12.20;99.90;;;;;;5074766;28;20242;-87
2023/11/19 07:59:34;;;;;;;30.13;7.55;;;12.10;99.90;;;;;;5076100;28;20215;-83
2023/11/19 08:02:07;;;;;;;25.88;7.35;;;12.20;99.90;;;;;;5074581;28;20606;-84
2023/11/19 08:04:34;;;;;;;32.95;6.57;;;12.30;99.90;;;;;;5077009;22;20236;-73
2023/11/19 08:07:14;;;;;;;31.13;8.38;;;12.20;99.90;;;;;;5034122;28;20278;-76
2023/11/19 08:09:42;;;;;;;26.90;9.27;;;12.20;99.90;;;;;;5024355;28;20232;-72
2023/11/19 08:12:14;;;;;;;31.27;7.10;;;12.20;99.90;;;;;;5034923;28;20292;-72
2023/11/19 08:14:40;;;;;;;39.67;10.52;;;12.20;99.90;;;;;;5033679;28;20220;-76
2023/11/19 08:17:07;;;;;;;27.73;6.53;;;12.30;99.90;;;;;;5033545;28;20203;-74
2023/11/19 08:19:34;;;;;;;40.17;10.02;;;12.40;99.90;;;;;;5032534;28;20650;-71
2023/11/19 08:22:02;;;;;;;31.52;8.60;;;12.30;99.90;;;;;;5037067;28;20279;-78
2023/11/19 08:24:29;;;;;;;33.90;9.63;;;12.50;99.90;;;;;;5033194;28;20232;-76
2023/11/19 08:26:56;;;;;;;28.90;7.93;;;12.40;99.90;;;;;;5032637;28;20205;-77
2023/11/19 08:29:24;;;;;;;34.63;6.53;;;12.40;99.90;;;;;;5032840;28;20197;-75
2023/11/19 08:31:51;;;;;;;28.67;7.80;;;12.40;99.90;;;;;;5033413;28;20207;-74
2023/11/19 08:34:18;;;;;;;38.80;7.28;;;12.40;99.90;;;;;;5033126;28;20263;-75
2023/11/19 08:36:45;;;;;;;25.17;6.85;;;12.40;99.90;;;;;;5031905;28;20204;-74
2023/11/19 08:39:13;;;;;;;24.98;7.55;;;12.60;99.90;;;;;;5033588;28;20283;-73
2023/11/19 08:41:41;;;;;;;36.92;8.02;;;12.50;99.90;;;;;;5027664;28;20225;-72
2023/11/19 08:44:08;;;;;;;26.75;7.80;;;12.80;99.90;;;;;;5020931;28;20280;-73
2023/11/19 08:46:36;;;;;;;35.15;9.18;;;13.10;99.90;;;;;;5031909;28;20235;-73
2023/11/19 08:49:03;;;;;;;25.40;6.18;;;13.40;99.90;;;;;;5033028;28;20228;-76
2023/11/19 08:51:31;;;;;;;25.85;6.72;;;13.50;99.90;;;;;;5032265;28;20239;-74
2023/11/19 08:53:58;;;;;;;27.05;6.97;;;13.60;99.90;;;;;;5027904;28;20730;-74
2023/11/19 08:56:31;;;;;;;29.15;6.20;;;13.40;99.90;;;;;;5027742;28;20215;-72
2023/11/19 08:58:58;;;;;;;31.33;7.03;;;13.60;99.90;;;;;;5032413;28;20204;-75
2023/11/19 09:01:26;;;;;;;28.15;7.50;;;13.70;99.90;;;;;;5032897;28;20240;-74
2023/11/19 09:03:55;;;;;;;26.50;7.28;;;14.30;99.90;;;;;;5032219;28;20231;-74
2023/11/19 09:06:23;;;;;;;25.00;5.82;;;14.20;99.90;;;;;;5030677;28;20200;-76
2023/11/19 09:08:50;;;;;;;33.90;6.57;;;14.30;99.90;;;;;;5028822;28;20204;-76
2023/11/19 09:11:18;;;;;;;26.80;7.65;;;14.30;99.90;;;;;;5030816;28;20257;-75
2023/11/19 09:13:45;;;;;;;23.50;7.35;;;14.10;99.90;;;;;;5032884;28;20257;-73
2023/11/19 09:16:13;;;;;;;23.17;6.18;;;14.10;99.90;;;;;;5033560;28;20201;-72
2023/11/19 09:18:40;;;;;;;26.17;6.57;;;14.10;99.90;;;;;;5044840;28;20283;-72
2023/11/19 09:21:08;;;;;;;25.23;7.05;;;13.90;99.90;;;;;;5042027;28;20295;-74
2023/11/19 09:23:38;;;;;;;33.75;6.88;;;13.70;99.90;;;;;;5041046;28;20328;-76
2023/11/19 09:26:06;;;;;;;35.63;9.65;;;13.80;99.90;;;;;;5031714;28;20214;-74
2023/11/19 09:28:33;;;;;;;31.47;10.57;;;13.80;99.90;;;;;;5032897;28;20208;-72
2023/11/19 09:31:00;;;;;;;38.63;7.75;;;13.90;99.90;;;;;;5046295;28;20866;-72
2023/11/19 09:33:28;;;;;;;29.23;7.32;;;13.80;99.90;;;;;;5041516;28;20227;-74
2023/11/19 09:35:54;;;;;;;31.15;7.82;;;13.70;99.90;;;;;;5037831;28;20290;-73
2023/11/19 09:38:23;;;;;;;32.65;8.57;;;13.40;99.90;;;;;;5037090;28;20270;-74
2023/11/19 09:40:50;;;;;;;25.13;5.97;;;13.30;99.90;;;;;;5038651;28;20302;-75
2023/11/19 09:45:49;;;;;;;31.88;9.63;;;13.10;99.90;;;;;;5007608;28;20224;-73
2023/11/19 09:48:18;;;;;;;21.23;7.03;;;12.90;99.90;;;;;;5012261;28;20202;-72
2023/11/19 09:50:47;;;;;;;26.98;9.82;;;12.80;99.90;;;;;;5018205;28;20201;-72
2023/11/19 09:53:15;;;;;;;26.17;7.95;;;12.70;99.90;;;;;;5014761;28;20293;-75
2023/11/19 09:55:44;;;;;;;39.75;10.35;;;12.60;99.90;;;;;;5046974;22;20566;-80
2023/11/19 09:58:15;;;;;;;36.92;9.27;;;12.50;99.90;;;;;;5038036;28;20200;-81
2023/11/19 10:00:42;;;;;;;28.52;8.55;;;12.50;99.90;;;;;;5043691;28;20299;-84
2023/11/19 10:03:12;;;;;;;37.45;8.23;;;12.40;99.90;;;;;;5037482;28;20205;-81
2023/11/19 10:05:40;;;;;;;43.20;8.32;;;12.40;99.90;;;;;;5036521;28;20234;-82
2023/11/19 10:08:07;;;;;;;28.95;9.43;;;12.50;99.90;;;;;;5043426;28;20205;-83
2023/11/19 10:10:34;;;;;;;36.45;8.57;;;12.50;99.90;;;;;;5035980;28;20231;-84
2023/11/19 10:13:03;;;;;;;45.40;9.50;;;12.60;99.90;;;;;;5043725;28;20207;-83
2023/11/19 10:15:36;;;;;;;27.98;7.10;;;12.70;99.90;;;;;;5043743;28;20228;-83
2023/11/19 10:18:04;;;;;;;32.50;9.05;;;12.70;99.90;;;;;;5035754;28;20212;-83
2023/11/19 10:20:36;;;;;;;26.83;8.52;;;12.60;99.90;;;;;;5045669;28;20224;-83
2023/11/19 10:23:03;;;;;;;26.17;7.70;;;12.40;99.90;;;;;;5042079;28;20293;-86
2023/11/19 10:25:31;;;;;;;33.22;10.13;;;12.50;99.90;;;;;;5044286;28;20331;-84
2023/11/19 10:27:58;;;;;;;21.42;7.63;;;12.50;99.90;;;;;;5045519;28;20294;-84
2023/11/19 10:30:27;;;;;;;33.00;8.43;;;12.50;99.90;;;;;;5042115;28;20205;-86
2023/11/19 10:33:14;;;;;;;34.92;8.98;;;12.60;99.90;;;;;;5038989;28;20273;-85
2023/11/19 10:35:53;;;;;;;42.30;10.18;;;12.40;99.90;;;;;;5041692;28;20229;-82
2023/11/19 10:38:20;;;;;;;37.95;8.20;;;12.60;99.90;;;;;;5048406;28;20229;-82
2023/11/19 10:40:47;;;;;;;35.78;9.70;;;12.60;99.90;;;;;;5037694;28;20319;-83
2023/11/19 10:43:14;;;;;;;23.33;6.53;;;12.60;99.90;;;;;;5042336;28;20295;-84
2023/11/19 10:45:43;;;;;;;23.73;7.95;;;12.80;99.90;;;;;;5036742;28;20312;-84
2023/11/19 10:48:10;;;;;;;30.63;7.22;;;12.70;99.90;;;;;;5037210;28;20197;-82
2023/11/19 10:50:37;;;;;;;36.80;8.85;;;12.80;99.90;;;;;;5048507;28;20268;-83
2023/11/19 10:53:05;;;;;;;26.60;7.30;;;12.90;99.90;;;;;;5041927;28;20268;-84
2023/11/19 10:55:34;;;;;;;27.17;7.70;;;12.90;99.90;;;;;;5039814;28;20293;-85
2023/11/19 10:58:03;;;;;;;21.55;8.32;;;13.00;99.90;;;;;;5041931;28;20264;-83
2023/11/19 11:00:32;;;;;;;24.85;6.18;;;13.10;99.90;;;;;;5042750;28;20226;-82
2023/11/19 11:03:06;;;;;;;36.58;7.88;;;13.00;99.90;;;;;;5044666;28;20968;-83
2023/11/19 11:05:34;;;;;;;32.58;7.65;;;13.00;99.90;;;;;;5040211;28;20223;-82
2023/11/19 11:08:03;;;;;;;29.40;6.82;;;13.10;99.90;;;;;;5043356;28;20203;-82
2023/11/19 11:10:36;;;;;;;29.50;9.05;;;13.30;99.90;;;;;;5040119;28;20704;-84
2023/11/19 11:13:04;;;;;;;39.08;8.93;;;13.40;99.90;;;;;;5036405;28;20207;-84
2023/11/19 11:15:32;;;;;;;29.88;8.55;;;13.20;99.90;;;;;;5037396;28;20253;-84
2023/11/19 11:18:03;;;;;;;28.90;8.32;;;13.10;99.90;;;;;;5033307;28;20205;-83
2023/11/19 11:20:33;;;;;;;25.52;7.60;;;13.10;99.90;;;;;;5041613;28;20338;-82
2023/11/19 11:23:27;;;;;;;27.13;7.88;;;13.20;99.90;;;;;;5045975;28;20200;-82
2023/11/19 11:26:07;;;;;;;22.13;7.93;;;13.10;99.90;;;;;;5033798;28;20254;-82
2023/11/19 11:28:42;;;;;;;36.25;8.65;;;13.10;99.90;;;;;;5044376;28;20211;-84
2023/11/19 11:31:23;;;;;;;28.98;7.85;;;13.20;99.90;;;;;;5046442;28;20197;-82
2023/11/19 11:34:11;;;;;;;24.73;7.20;;;13.10;99.90;;;;;;5041089;28;20211;-82
2023/11/19 11:36:48;;;;;;;38.50;7.72;;;12.90;99.90;;;;;;5041101;28;20221;-84
2023/11/19 11:39:16;;;;;;;27.25;7.18;;;12.90;99.90;;;;;;5031017;28;20235;-82
2023/11/19 11:41:44;;;;;;;34.00;7.68;;;13.10;99.90;;;;;;5041434;28;20479;-83
2023/11/19 11:44:11;;;;;;;21.60;8.43;;;13.10;99.90;;;;;;5040194;28;20247;-83
2023/11/19 11:46:57;;;;;;;35.42;9.07;;;13.20;99.90;;;;;;5039953;28;20291;-84
2023/11/19 11:49:35;;;;;;;31.25;7.50;;;13.10;99.90;;;;;;5039901;28;20203;-83
2023/11/19 11:52:03;;;;;;;25.67;9.02;;;13.20;99.90;;;;;;5042632;28;20196;-82
2023/11/19 11:54:31;;;;;;;25.17;7.32;;;13.20;99.90;;;;;;5042345;28;20293;-84
2023/11/19 11:57:19;;;;;;;34.45;7.65;;;13.20;99.90;;;;;;5042229;28;20203;-84
2023/11/19 11:59:49;;;;;;;29.55;8.63;;;13.10;99.90;;;;;;5033562;28;20203;-83
2023/11/19 12:02:18;;;;;;;27.50;6.45;;;13.00;99.90;;;;;;5041446;28;20657;-83
2023/11/19 12:04:48;;;;;;;25.45;8.48;;;13.10;99.90;;;;;;5037450;28;20226;-83
2023/11/19 12:07:17;;;;;;;23.00;7.60;;;13.00;99.90;;;;;;5040792;28;20196;-83
2023/11/19 12:09:49;;;;;;;33.25;9.27;;;12.90;99.90;;;;;;5044192;28;20242;-84
2023/11/19 12:12:22;;;;;;;30.63;7.57;;;12.90;99.90;;;;;;5041204;28;20231;-84
2023/11/19 12:15:04;;;;;;;31.05;6.78;;;12.80;99.90;;;;;;5038373;28;20709;-83
2023/11/19 12:17:44;;;;;;;25.73;8.38;;;12.80;99.90;;;;;;5042224;28;20207;-83
2023/11/19 12:20:13;;;;;;;32.17;8.52;;;12.80;99.90;;;;;;5041564;28;20204;-81
2023/11/19 12:22:41;;;;;;;32.88;7.85;;;12.80;99.90;;;;;;5040634;28;20227;-83
2023/11/19 12:25:09;;;;;;;33.92;7.72;;;12.70;99.90;;;;;;5043667;28;20244;-82
2023/11/19 12:27:36;;;;;;;34.35;8.20;;;12.80;99.90;;;;;;5038386;28;20212;-84
2023/11/19 12:30:04;;;;;;;33.35;8.52;;;12.80;99.90;;;;;;5037125;28;20264;-83
2023/11/19 12:32:40;;;;;;;22.10;7.22;;;12.90;99.90;;;;;;5036836;28;20205;-82
2023/11/19 12:35:11;;;;;;;37.05;7.32;;;12.90;99.90;;;;;;5033274;28;20216;-83
2023/11/19 12:37:42;;;;;;;32.97;7.80;;;12.90;99.90;;;;;;5039756;28;20220;-84
2023/11/19 12:40:13;;;;;;;28.98;7.03;;;13.00;99.90;;;;;;5037820;28;20209;-83
2023/11/19 12:42:41;;;;;;;34.20;9.45;;;12.80;99.90;;;;;;5034791;28;20228;-82